Time;durP1;ratioP1;P1;durP2;ratioP2;P2;SDS_P1;SDS_P2;PMS_P1;PMS_P2;Temp;Humidity;BMP_temperature;BMP_pressure;BME280_temperature;BME280_humidity;BME280_pressure;Samples;Min_cycle;Max_cycle;Signal;HPM_P1;HPM_P2
2022/12/10 00:01:37;;;;;;;386.75;70.60;;;;;;;4.26;100.00;100156.09;5039450;28;20056;-77
2022/12/10 00:04:03;;;;;;;438.73;70.75;;;;;;;4.00;100.00;100110.56;5041537;28;20114;-76
2022/12/10 00:06:31;;;;;;;223.45;42.53;;;;;;;4.36;100.00;100158.91;5021975;28;20045;-75
2022/12/10 00:08:58;;;;;;;197.93;35.92;;;;;;;4.30;100.00;100169.16;5024654;28;20037;-76
2022/12/10 00:11:24;;;;;;;243.63;47.00;;;;;;;3.52;100.00;100027.31;5031143;28;20041;-78
2022/12/10 00:13:51;;;;;;;430.83;61.65;;;;;;;3.43;100.00;99996.88;5023127;28;20068;-76
2022/12/10 00:16:19;;;;;;;296.80;53.42;;;;;;;4.07;100.00;100087.31;5020061;28;20049;-76
2022/12/10 00:18:45;;;;;;;396.70;70.03;;;;;;;4.13;100.00;100141.97;5017280;28;20064;-78
2022/12/10 00:21:14;;;;;;;298.05;46.95;;;;;;;3.58;100.00;100036.13;5023563;28;20556;-77
2022/12/10 00:23:40;;;;;;;166.02;36.60;;;;;;;3.95;100.00;100072.34;5020759;28;20386;-77
2022/12/10 00:26:18;;;;;;;331.00;52.58;;;;;;;3.47;100.00;100024.63;5023789;28;20049;-78
2022/12/10 00:28:44;;;;;;;639.75;96.10;;;;;;;4.58;100.00;100170.63;5023617;28;20060;-76
2022/12/10 00:31:15;;;;;;;79.45;27.48;;;;;;;4.04;100.00;100043.13;5002535;28;20049;-76
2022/12/10 00:33:42;;;;;;;353.38;51.88;;;;;;;3.82;100.00;99972.63;5014671;28;20158;-74
2022/12/10 00:36:14;;;;;;;163.07;32.47;;;;;;;2.66;100.00;99797.34;5006893;28;21030;-77
2022/12/10 00:38:40;;;;;;;92.45;31.85;;;;;;;4.26;100.00;100027.13;5017060;28;20053;-77
2022/12/10 00:41:06;;;;;;;130.50;32.22;;;;;;;4.06;100.00;100024.13;5022142;28;20045;-76
2022/12/10 00:43:32;;;;;;;160.82;31.98;;;;;;;4.41;100.00;100120.91;5012907;28;20053;-77
2022/12/10 00:45:58;;;;;;;116.25;27.05;;;;;;;4.46;100.00;100121.00;5022632;28;20064;-76
2022/12/10 00:48:24;;;;;;;315.90;38.92;;;;;;;4.58;100.00;100126.44;5022916;28;20100;-76
2022/12/10 00:51:04;;;;;;;88.28;24.08;;;;;;;4.69;100.00;100120.59;5023281;28;20128;-76
2022/12/10 00:53:31;;;;;;;225.52;38.35;;;;;;;4.93;100.00;100143.56;5007332;28;20045;-76
2022/12/10 00:55:58;;;;;;;424.95;57.55;;;;;;;3.97;100.00;100024.81;5035371;28;20111;-76
2022/12/10 00:58:27;;;;;;;159.82;35.58;;;;;;;3.97;100.00;99991.06;5020949;28;20057;-77
2022/12/10 01:00:53;;;;;;;173.68;35.85;;;;;;;4.28;100.00;100012.44;5025163;28;20042;-78
2022/12/10 01:03:18;;;;;;;301.02;49.17;;;;;;;4.60;100.00;100126.47;5032715;28;20048;-78
2022/12/10 01:05:44;;;;;;;346.00;59.45;;;;;;;4.74;100.00;100119.81;5046678;28;20052;-78
2022/12/10 01:08:09;;;;;;;209.45;38.53;;;;;;;4.34;100.00;100079.22;5049079;28;20799;-77
2022/12/10 01:10:36;;;;;;;153.75;30.88;;;;;;;3.80;100.00;99971.72;5038915;28;20038;-78
2022/12/10 01:13:01;;;;;;;161.80;33.15;;;;;;;4.66;100.00;100100.63;5039971;28;20041;-78
2022/12/10 01:15:27;;;;;;;53.65;26.58;;;;;;;4.10;100.00;99962.78;5047810;28;20481;-79
2022/12/10 01:17:52;;;;;;;138.10;30.77;;;;;;;4.30;100.00;99996.88;5059308;28;20060;-78
2022/12/10 01:20:18;;;;;;;112.10;30.02;;;;;;;5.07;100.00;100121.28;5053174;28;20122;-78
2022/12/10 01:22:43;;;;;;;168.23;31.15;;;;;;;4.22;100.00;99970.78;5063874;28;20063;-77
2022/12/10 01:25:09;;;;;;;57.22;25.90;;;;;;;4.99;100.00;100100.34;5050385;28;20064;-79
2022/12/10 01:27:34;;;;;;;278.42;46.80;;;;;;;4.92;100.00;100103.69;5057519;28;20140;-77
2022/12/10 01:30:00;;;;;;;166.70;41.15;;;;;;;4.51;100.00;100054.44;5047949;28;20119;-76
2022/12/10 01:32:26;;;;;;;210.73;41.42;;;;;;;3.79;100.00;99965.66;5049431;28;20047;-79
2022/12/10 01:34:51;;;;;;;151.75;33.58;;;;;;;3.61;100.00;99951.44;5030731;28;20041;-77
2022/12/10 01:37:17;;;;;;;262.48;47.33;;;;;;;4.31;100.00;100085.22;5032981;28;20459;-80
2022/12/10 01:39:42;;;;;;;384.90;55.00;;;;;;;3.80;100.00;100023.59;5054433;28;20033;-75
2022/12/10 01:42:13;;;;;;;209.63;39.90;;;;;;;4.11;100.00;100060.56;5047661;28;20036;-76
2022/12/10 01:44:41;;;;;;;299.63;50.38;;;;;;;4.14;100.00;100099.56;5047330;28;20044;-77
2022/12/10 01:47:07;;;;;;;323.77;51.08;;;;;;;4.33;100.00;100091.34;5047930;28;20049;-78
2022/12/10 01:49:36;;;;;;;98.03;26.75;;;;;;;4.41;100.00;100062.91;5060203;28;20072;-79
2022/12/10 01:52:03;;;;;;;56.65;24.48;;;;;;;4.61;100.00;100079.75;5027907;28;20040;-79
2022/12/10 01:54:38;;;;;;;317.85;48.60;;;;;;;4.39;100.00;100044.69;5051811;28;20037;-78
2022/12/10 01:57:08;;;;;;;106.72;26.85;;;;;;;4.62;100.00;100059.84;5053360;28;20072;-75
2022/12/10 01:59:35;;;;;;;209.93;33.42;;;;;;;3.75;100.00;99939.59;5050092;28;20055;-79
2022/12/10 02:02:28;;;;;;;82.55;22.13;;;;;;;4.69;100.00;100077.28;5038516;28;20139;-78
2022/12/10 02:04:56;;;;;;;106.70;24.17;;;;;;;4.84;100.00;100084.47;5029224;28;20052;-79
2022/12/10 02:07:45;;;;;;;240.50;36.95;;;;;;;4.84;100.00;100087.06;5036592;28;20080;-78
2022/12/10 02:10:32;;;;;;;147.05;26.40;;;;;;;4.71;100.00;100079.91;5022535;28;20065;-76
2022/12/10 02:13:13;;;;;;;49.65;19.13;;;;;;;4.63;100.00;100052.03;5032216;28;20052;-79
2022/12/10 02:15:51;;;;;;;43.03;17.30;;;;;;;4.14;100.00;99951.56;5036159;28;20087;-80
2022/12/10 02:18:36;;;;;;;32.60;19.27;;;;;;;4.99;100.00;100087.34;5033765;28;20490;-79
2022/12/10 02:21:08;;;;;;;31.75;19.25;;;;;;;4.94;100.00;100075.09;5038203;28;20075;-78
2022/12/10 02:23:39;;;;;;;34.58;20.13;;;;;;;4.69;100.00;99999.31;5041128;28;20123;-79
2022/12/10 02:26:27;;;;;;;29.65;17.90;;;;;;;5.20;100.00;100092.03;5049200;28;20154;-78
2022/12/10 02:29:18;;;;;;;31.13;17.23;;;;;;;5.25;100.00;100092.13;5045412;28;20053;-77
2022/12/10 02:31:55;;;;;;;25.27;16.20;;;;;;;5.22;100.00;100082.53;5044006;28;20057;-76
2022/12/10 02:34:23;;;;;;;32.63;21.75;;;;;;;5.22;100.00;100066.94;5047944;28;20060;-75
2022/12/10 02:36:52;;;;;;;34.05;22.42;;;;;;;5.16;100.00;100035.63;5046205;28;20049;-79
2022/12/10 02:39:24;;;;;;;30.05;18.65;;;;;;;4.92;100.00;99991.91;5053633;28;20040;-78
2022/12/10 02:41:54;;;;;;;54.13;21.13;;;;;;;3.94;100.00;99889.78;5063633;28;20037;-75
2022/12/10 02:44:23;;;;;;;27.85;18.35;;;;;;;4.88;100.00;100007.44;5058039;28;20138;-79
2022/12/10 02:46:52;;;;;;;98.53;22.45;;;;;;;4.65;100.00;99985.38;5050670;28;20052;-77
2022/12/10 02:49:18;;;;;;;32.10;19.48;;;;;;;4.44;100.00;99925.28;5025315;28;20057;-75
2022/12/10 02:51:43;;;;;;;40.38;22.65;;;;;;;4.43;100.00;99898.44;5048679;28;20049;-76
2022/12/10 02:54:46;;;;;;;37.25;19.27;;;;;;;5.19;100.00;100040.84;5042524;28;20036;-76
2022/12/10 02:57:35;;;;;;;37.95;20.75;;;;;;;5.09;100.00;100036.38;4994493;28;20064;-76
2022/12/10 03:00:09;;;;;;;31.00;19.38;;;;;;;5.08;100.00;100021.63;5034964;28;20059;-74
2022/12/10 03:02:53;;;;;;;31.60;21.63;;;;;;;4.85;100.00;100034.25;5025270;28;20030;-76
2022/12/10 03:05:46;;;;;;;32.50;22.50;;;;;;;4.83;100.00;99991.75;5040155;28;20126;-73
2022/12/10 03:08:24;;;;;;;35.78;20.02;;;;;;;4.91;100.00;100028.28;5036492;28;20183;-76
2022/12/10 03:11:05;;;;;;;27.10;17.75;;;;;;;5.06;100.00;100003.41;5037726;28;20041;-75
2022/12/10 03:13:43;;;;;;;28.05;18.52;;;;;;;4.82;100.00;99982.19;5039418;28;20055;-75
2022/12/10 03:16:10;;;;;;;30.58;18.13;;;;;;;4.81;100.00;99942.34;5021194;28;20049;-76
2022/12/10 03:18:37;;;;;;;28.95;19.92;;;;;;;5.31;100.00;100016.75;5037522;28;20057;-76
2022/12/10 03:21:05;;;;;;;31.58;18.13;;;;;;;5.17;100.00;99972.34;5021797;28;20044;-76
2022/12/10 03:23:32;;;;;;;29.85;17.75;;;;;;;5.41;100.00;100010.00;5045994;28;20041;-76
2022/12/10 03:25:58;;;;;;;29.23;20.77;;;;;;;4.77;100.00;99908.47;5036906;28;20045;-75
2022/12/10 03:28:26;;;;;;;37.53;21.02;;;;;;;4.62;100.00;99851.97;5038057;28;20484;-74
2022/12/10 03:30:54;;;;;;;27.40;17.95;;;;;;;5.17;100.00;99945.47;5045251;28;20122;-76
2022/12/10 03:33:19;;;;;;;27.95;19.83;;;;;;;4.63;100.00;99862.34;5044264;28;20053;-75
2022/12/10 03:35:45;;;;;;;43.45;19.17;;;;;;;4.56;100.00;99847.53;5047269;28;20082;-77
2022/12/10 03:38:12;;;;;;;26.08;17.17;;;;;;;4.82;100.00;99902.50;5037453;28;20787;-76
2022/12/10 03:40:38;;;;;;;32.70;19.90;;;;;;;4.61;100.00;99845.00;5039763;28;20060;-74
2022/12/10 03:43:03;;;;;;;25.90;17.73;;;;;;;5.49;100.00;99987.53;5020917;28;20601;-75
2022/12/10 03:45:28;;;;;;;33.63;20.25;;;;;;;4.75;100.00;99868.59;5016604;28;20053;-75
2022/12/10 03:47:54;;;;;;;32.30;19.15;;;;;;;5.29;100.00;99940.41;5042702;28;20047;-75
2022/12/10 03:50:19;;;;;;;28.90;20.60;;;;;;;4.67;100.00;99867.63;5048834;28;20077;-75
2022/12/10 03:52:45;;;;;;;29.75;19.95;;;;;;;5.43;100.00;99987.44;5051201;28;20126;-76
2022/12/10 03:55:10;;;;;;;29.80;20.40;;;;;;;4.55;100.00;99811.16;5040435;28;20053;-74
2022/12/10 03:57:36;;;;;;;27.92;18.75;;;;;;;5.26;100.00;99933.44;5043630;28;20059;-74
2022/12/10 04:00:06;;;;;;;28.23;18.23;;;;;;;5.64;100.00;99985.16;5040926;28;20044;-75
2022/12/10 04:02:32;;;;;;;35.20;18.73;;;;;;;5.69;100.00;99978.28;5062429;28;20059;-75
2022/12/10 04:04:57;;;;;;;35.10;19.05;;;;;;;5.56;100.00;99949.47;5042674;28;20045;-76
2022/12/10 04:07:23;;;;;;;31.23;20.08;;;;;;;5.77;100.00;99967.06;5041218;28;20053;-74
2022/12/10 04:09:48;;;;;;;26.17;18.10;;;;;;;4.93;100.00;99842.88;5045397;28;20049;-75
2022/12/10 04:12:14;;;;;;;40.05;21.38;;;;;;;5.23;100.00;99898.75;5043696;28;20048;-76
2022/12/10 04:17:23;;;;;;;33.20;21.30;;;;;;;5.36;100.00;99915.38;5040831;28;20048;-76
2022/12/10 04:19:48;;;;;;;34.83;22.10;;;;;;;5.05;100.00;99860.34;5039565;28;20041;-77
2022/12/10 04:27:42;;;;;;;35.65;23.67;;;;;;;5.88;100.00;99976.75;5048010;28;20103;-76
2022/12/10 04:30:11;;;;;;;42.00;23.77;;;;;;;5.97;100.00;99993.38;5059886;28;20041;-75
2022/12/10 04:32:36;;;;;;;41.03;24.38;;;;;;;5.93;100.00;99995.03;5025263;28;20033;-75
2022/12/10 04:35:03;;;;;;;46.85;33.17;;;;;;;5.10;100.00;99873.41;5056841;28;20064;-76
2022/12/10 04:37:30;;;;;;;46.53;28.75;;;;;;;5.13;100.00;99858.75;5042761;28;20049;-76
2022/12/10 04:39:55;;;;;;;45.78;26.55;;;;;;;4.97;100.00;99836.84;5051408;28;20072;-75
2022/12/10 04:42:21;;;;;;;41.05;27.38;;;;;;;5.90;100.00;99982.00;5050426;28;20059;-76
2022/12/10 04:44:47;;;;;;;40.60;27.27;;;;;;;5.91;100.00;99988.94;5041476;28;20127;-75
2022/12/10 04:47:13;;;;;;;51.40;33.13;;;;;;;5.40;100.00;99880.75;5048287;28;20049;-75
2022/12/10 04:49:39;;;;;;;42.97;26.48;;;;;;;5.08;100.00;99837.00;5038680;28;20129;-75
2022/12/10 04:52:06;;;;;;;43.63;26.52;;;;;;;5.45;100.00;99892.06;5042421;28;20049;-74
2022/12/10 04:54:32;;;;;;;54.08;35.10;;;;;;;5.76;100.00;99934.06;5055396;28;20068;-75
2022/12/10 04:56:57;;;;;;;36.42;24.83;;;;;;;5.79;100.00;99954.97;5051883;28;20522;-75
2022/12/10 04:59:23;;;;;;;34.22;22.17;;;;;;;5.83;100.00;99960.22;5037105;28;20493;-76
2022/12/10 05:01:49;;;;;;;41.67;24.20;;;;;;;5.35;100.00;99880.69;5047331;28;20060;-76
2022/12/10 05:04:16;;;;;;;35.85;23.33;;;;;;;5.26;100.00;99858.03;5052362;28;20060;-76
2022/12/10 05:06:43;;;;;;;44.50;23.95;;;;;;;5.88;100.00;99961.16;5042699;28;20104;-76
2022/12/10 05:09:10;;;;;;;40.65;26.58;;;;;;;5.26;100.00;99849.34;5045264;28;20040;-76
2022/12/10 05:11:35;;;;;;;36.85;25.73;;;;;;;5.32;100.00;99843.38;5043483;28;20044;-75
2022/12/10 05:14:01;;;;;;;35.72;23.58;;;;;;;6.09;100.00;99981.38;5047966;28;20462;-74
2022/12/10 05:16:28;;;;;;;51.67;32.28;;;;;;;5.84;100.00;99925.50;5058160;28;23389;-75
2022/12/10 05:18:55;;;;;;;40.33;23.52;;;;;;;5.93;100.00;99946.44;5044772;28;20149;-75
2022/12/10 05:21:22;;;;;;;35.88;24.42;;;;;;;6.11;100.00;99948.41;5036253;28;20688;-74
2022/12/10 05:23:50;;;;;;;42.80;25.88;;;;;;;5.65;100.00;99872.38;5045485;28;20040;-76
2022/12/10 05:26:21;;;;;;;40.70;23.83;;;;;;;5.43;100.00;99831.34;5053689;28;20160;-74
2022/12/10 05:28:48;;;;;;;35.20;24.55;;;;;;;6.23;100.00;99973.72;5044812;28;20052;-75
2022/12/10 05:31:16;;;;;;;46.60;31.83;;;;;;;5.80;100.00;99887.28;5042369;28;20119;-74
2022/12/10 05:33:42;;;;;;;35.47;23.48;;;;;;;5.56;100.00;99827.16;5044324;28;20128;-75
2022/12/10 05:36:10;;;;;;;37.42;23.48;;;;;;;6.37;100.00;99963.44;5040809;28;21785;-75
2022/12/10 05:38:37;;;;;;;37.13;23.80;;;;;;;6.34;100.00;99952.97;5029051;28;20040;-75
2022/12/10 05:41:04;;;;;;;32.15;22.00;;;;;;;6.24;100.00;99952.00;5044340;28;20053;-75
2022/12/10 05:43:30;;;;;;;42.00;29.63;;;;;;;5.59;100.00;99814.16;5050560;28;20045;-75
2022/12/10 05:46:02;;;;;;;43.42;27.23;;;;;;;5.64;100.00;99821.19;5048089;28;20098;-74
2022/12/10 05:48:29;;;;;;;32.00;21.13;;;;;;;6.02;100.00;99903.16;5039998;28;20045;-75
2022/12/10 05:50:55;;;;;;;36.30;25.63;;;;;;;6.09;100.00;99911.06;5042463;28;20470;-75
2022/12/10 05:53:21;;;;;;;29.45;18.33;;;;;;;5.05;100.00;99775.41;5046100;28;20057;-74
2022/12/10 05:55:46;;;;;;;41.92;24.45;;;;;;;5.95;100.00;99906.53;5039776;28;20053;-75
2022/12/10 05:58:11;;;;;;;31.15;19.02;;;;;;;6.05;100.00;99924.03;5058996;28;20492;-74
2022/12/10 06:00:39;;;;;;;29.90;19.13;;;;;;;5.22;100.00;99778.22;5047316;28;20076;-76
2022/12/10 06:03:05;;;;;;;32.78;17.92;;;;;;;5.26;100.00;99787.78;5047172;28;20088;-76
2022/12/10 06:05:39;;;;;;;31.17;19.35;;;;;;;6.13;100.00;99915.44;5045416;28;20123;-76
2022/12/10 06:08:05;;;;;;;34.15;25.50;;;;;;;6.22;100.00;99926.78;5036534;28;20059;-75
2022/12/10 06:10:30;;;;;;;37.08;25.48;;;;;;;6.24;100.00;99932.91;5038833;28;20042;-74
2022/12/10 06:12:56;;;;;;;26.90;19.38;;;;;;;5.29;100.00;99776.53;5047126;28;20071;-76
2022/12/10 06:15:22;;;;;;;27.70;18.52;;;;;;;6.38;100.00;99962.56;5046979;28;20670;-75
2022/12/10 06:17:48;;;;;;;29.25;17.67;;;;;;;5.71;100.00;99835.09;5041812;28;20511;-74
2022/12/10 06:20:13;;;;;;;34.55;20.92;;;;;;;6.29;100.00;99921.66;5057290;28;20045;-74
2022/12/10 06:22:39;;;;;;;27.23;20.55;;;;;;;5.55;100.00;99791.56;5029818;28;20389;-74
2022/12/10 06:25:06;;;;;;;27.90;21.77;;;;;;;5.81;100.00;99836.97;5028338;28;20103;-75
2022/12/10 06:27:32;;;;;;;32.67;19.98;;;;;;;6.09;100.00;99884.16;5045890;28;20059;-74
2022/12/10 06:29:57;;;;;;;31.80;23.77;;;;;;;5.87;100.00;99833.53;5045453;28;20033;-73
2022/12/10 06:32:23;;;;;;;39.10;26.10;;;;;;;6.21;100.00;99880.78;5040628;28;20060;-75
2022/12/10 06:34:49;;;;;;;26.73;19.63;;;;;;;6.28;100.00;99904.28;5046445;28;20444;-74
2022/12/10 06:37:14;;;;;;;29.27;18.25;;;;;;;6.64;100.00;99965.41;5036532;28;20052;-74
2022/12/10 06:39:40;;;;;;;38.30;26.98;;;;;;;6.06;100.00;99871.06;5034736;28;20099;-75
2022/12/10 06:42:05;;;;;;;31.45;24.35;;;;;;;6.66;100.00;99971.50;5047123;28;20392;-74
2022/12/10 06:44:31;;;;;;;40.45;26.70;;;;;;;6.53;100.00;99947.09;5050210;28;20033;-75
2022/12/10 06:46:56;;;;;;;39.42;27.70;;;;;;;6.64;100.00;99956.72;5036018;28;20061;-74
2022/12/10 06:49:22;;;;;;;27.65;19.27;;;;;;;6.55;100.00;99921.00;5045247;28;20045;-74
2022/12/10 06:51:47;;;;;;;26.75;19.77;;;;;;;6.60;100.00;99903.66;5040924;28;20152;-75
2022/12/10 06:54:14;;;;;;;39.45;28.17;;;;;;;6.73;100.00;99939.41;5043491;28;20063;-77
2022/12/10 06:56:39;;;;;;;36.05;27.58;;;;;;;6.80;100.00;99936.88;5041473;28;20056;-76
2022/12/10 06:59:08;;;;;;;33.72;22.08;;;;;;;6.90;100.00;99920.41;5026734;28;20057;-75
2022/12/10 07:01:34;;;;;;;30.10;21.23;;;;;;;6.74;100.00;99877.69;5043636;28;20056;-75
2022/12/10 07:04:00;;;;;;;33.70;27.85;;;;;;;6.71;100.00;99883.78;5037867;28;20052;-75
2022/12/10 07:06:27;;;;;;;43.33;29.55;;;;;;;6.44;100.00;99818.41;5041471;28;20799;-76
2022/12/10 07:08:54;;;;;;;45.22;29.80;;;;;;;6.33;100.00;99810.53;5041435;28;20037;-75
2022/12/10 07:11:22;;;;;;;39.33;29.08;;;;;;;6.88;100.00;99877.78;5038128;28;20047;-75
2022/12/10 07:13:47;;;;;;;33.45;27.55;;;;;;;7.11;100.00;99904.88;5045548;28;20053;-76
2022/12/10 07:16:18;;;;;;;32.25;26.50;;;;;;;7.28;100.00;99919.75;5046141;28;20087;-74
2022/12/10 07:18:44;;;;;;;38.45;28.52;;;;;;;7.27;100.00;99923.25;5020935;28;20091;-76
2022/12/10 07:21:35;;;;;;;40.40;28.40;;;;;;;7.29;100.00;99917.16;5046066;28;20041;-75
2022/12/10 07:24:07;;;;;;;34.17;26.77;;;;;;;7.46;100.00;99911.16;5037270;28;20045;-76
2022/12/10 07:26:35;;;;;;;36.83;26.75;;;;;;;7.53;100.00;99918.16;5040775;28;20037;-75
2022/12/10 07:29:03;;;;;;;31.55;22.05;;;;;;;7.05;100.00;99829.22;5043563;28;20429;-76
2022/12/10 07:31:28;;;;;;;40.60;27.85;;;;;;;7.47;100.00;99912.91;5028484;28;20071;-75
2022/12/10 07:33:56;;;;;;;36.97;28.13;;;;;;;7.49;100.00;99917.28;5036505;28;20054;-76
2022/12/10 07:36:22;;;;;;;42.67;26.90;;;;;;;7.02;100.00;99813.53;5040759;28;20069;-76
2022/12/10 07:38:49;;;;;;;60.10;25.52;;;;;;;7.67;100.00;99915.59;5045828;28;20167;-76
2022/12/10 07:41:15;;;;;;;38.97;27.05;;;;;;;7.38;100.00;99877.22;5026622;28;20094;-74
2022/12/10 07:43:42;;;;;;;32.53;25.35;;;;;;;6.83;100.00;99775.19;5045564;28;20099;-76
2022/12/10 07:46:17;;;;;;;38.13;27.48;;;;;;;7.01;100.00;99797.91;5043082;28;20482;-76
2022/12/10 07:48:45;;;;;;;38.50;29.10;;;;;;;7.29;100.00;99885.00;5034195;28;20065;-76
2022/12/10 07:51:11;;;;;;;38.63;25.90;;;;;;;6.85;100.00;99783.91;5023090;28;20041;-76
2022/12/10 07:53:37;;;;;;;42.47;26.35;;;;;;;6.99;100.00;99790.06;5037559;28;20044;-75
2022/12/10 07:56:03;;;;;;;41.40;26.40;;;;;;;7.63;100.00;99867.69;5039466;28;20056;-74
2022/12/10 07:58:29;;;;;;;32.67;26.33;;;;;;;7.13;100.00;99767.50;5038467;28;20556;-76
2022/12/10 08:00:54;;;;;;;37.33;28.05;;;;;;;7.86;100.00;99864.28;5019091;28;20053;-76
2022/12/10 08:03:20;;;;;;;43.03;28.20;;;;;;;7.06;100.00;99731.81;5038263;28;20761;-75
2022/12/10 08:05:47;;;;;;;43.35;29.77;;;;;;;7.57;100.00;99828.53;5037582;28;20056;-76
2022/12/10 08:08:12;;;;;;;34.72;27.98;;;;;;;7.22;100.00;99745.78;5037435;28;20063;-76
2022/12/10 08:10:39;;;;;;;49.40;28.13;;;;;;;7.43;100.00;99772.81;5015279;28;20451;-74
2022/12/10 08:13:05;;;;;;;43.42;28.38;;;;;;;7.20;100.00;99752.75;5041448;28;20041;-77
2022/12/10 08:15:31;;;;;;;40.08;29.10;;;;;;;8.03;100.00;99852.16;5040578;28;20045;-79
2022/12/10 08:17:57;;;;;;;41.13;28.92;;;;;;;7.71;100.00;99818.13;5038147;28;20059;-76
2022/12/10 08:20:24;;;;;;;44.45;30.90;;;;;;;7.88;100.00;99821.63;5048284;28;20111;-75
2022/12/10 08:22:50;;;;;;;46.95;30.48;;;;;;;7.85;100.00;99815.53;5037634;28;20061;-75
2022/12/10 08:25:15;;;;;;;41.65;27.80;;;;;;;7.97;100.00;99823.38;5037616;28;20754;-75
2022/12/10 08:27:42;;;;;;;47.58;29.83;;;;;;;8.15;100.00;99831.25;5045433;28;20059;-77
2022/12/10 08:30:09;;;;;;;36.72;27.75;;;;;;;7.57;100.00;99743.25;5036547;28;20044;-75
2022/12/10 08:32:35;;;;;;;45.70;29.38;;;;;;;8.17;100.00;99849.53;5039766;28;20399;-76
2022/12/10 08:35:00;;;;;;;35.15;28.48;;;;;;;8.03;100.00;99811.22;5017042;28;20060;-76
2022/12/10 08:37:26;;;;;;;47.70;30.02;;;;;;;8.31;100.00;99839.97;5033569;28;20045;-77
2022/12/10 08:39:51;;;;;;;51.42;31.52;;;;;;;8.23;100.00;99812.94;5026123;28;20067;-76
2022/12/10 08:42:17;;;;;;;43.60;30.83;;;;;;;7.93;100.00;99832.94;5039681;28;20204;-76
2022/12/10 08:44:42;;;;;;;42.10;30.90;;;;;;;7.68;100.00;99834.66;5042787;28;20060;-76
2022/12/10 08:47:08;;;;;;;43.00;32.65;;;;;;;7.16;100.00;99719.69;5047863;28;20449;-76
2022/12/10 08:49:34;;;;;;;47.10;32.92;;;;;;;7.56;100.00;99751.06;5043856;28;20567;-77
2022/12/10 08:51:59;;;;;;;46.35;32.72;;;;;;;7.90;100.00;99767.66;5037456;28;20140;-77
2022/12/10 08:54:25;;;;;;;41.58;31.73;;;;;;;8.38;100.00;99835.59;5032369;28;20116;-74
2022/12/10 08:56:50;;;;;;;47.58;30.35;;;;;;;7.87;100.00;99727.63;5009689;28;20032;-77
2022/12/10 08:59:16;;;;;;;51.92;31.48;;;;;;;7.93;100.00;99701.47;5043396;28;20053;-76
2022/12/10 09:01:41;;;;;;;41.15;30.55;;;;;;;8.70;100.00;99819.91;5039654;28;20680;-77
2022/12/10 09:04:07;;;;;;;48.70;30.40;;;;;;;8.74;100.00;99819.03;5033518;28;20099;-79
2022/12/10 09:06:33;;;;;;;45.88;29.60;;;;;;;8.80;100.00;99797.19;5034361;28;20586;-75
2022/12/10 09:08:58;;;;;;;51.17;26.80;;;;;;;8.85;100.00;99788.47;5029199;28;20488;-75
2022/12/10 09:11:34;;;;;;;50.28;26.98;;;;;;;8.26;100.00;99677.03;5038846;28;20040;-74
2022/12/10 09:14:00;;;;;;;44.08;29.08;;;;;;;9.05;100.00;99792.75;5035782;28;20072;-75
2022/12/10 09:16:34;;;;;;;40.17;30.23;;;;;;;8.99;100.00;99754.41;5043873;28;20041;-77
2022/12/10 09:19:00;;;;;;;47.25;29.38;;;;;;;8.99;100.00;99756.13;5048518;28;20059;-75
2022/12/10 09:21:26;;;;;;;48.20;28.63;;;;;;;8.38;100.00;99642.13;5047317;28;20103;-75
2022/12/10 09:23:53;;;;;;;59.65;31.75;;;;;;;8.61;100.00;99684.78;5050305;28;20029;-76
2022/12/10 09:26:19;;;;;;;56.25;32.88;;;;;;;9.40;100.00;99774.28;5039668;28;20068;-77
2022/12/10 09:28:45;;;;;;;49.50;30.98;;;;;;;9.22;100.00;99751.66;5028827;28;20156;-77
2022/12/10 09:31:13;;;;;;;43.65;29.98;;;;;;;8.77;100.00;99669.91;5057541;28;20083;-74
2022/12/10 09:33:38;;;;;;;46.35;30.80;;;;;;;8.10;100.00;99631.78;5044928;28;20072;-76
2022/12/10 09:36:06;;;;;;;41.65;30.92;;;;;;;8.19;100.00;99643.94;5049470;28;20087;-76
2022/12/10 09:38:36;;;;;;;57.22;28.50;;;;;;;9.10;100.00;99749.13;5045679;28;20033;-75
2022/12/10 09:41:33;;;;;;;42.55;29.52;;;;;;;9.33;100.00;99751.63;5038112;28;20108;-75
2022/12/10 09:44:17;;;;;;;49.90;31.45;;;;;;;9.33;100.00;99711.47;5041567;28;20056;-75
2022/12/10 09:46:57;;;;;;;42.47;30.20;;;;;;;8.38;100.00;99613.38;5015911;28;20056;-77
2022/12/10 09:49:23;;;;;;;45.67;30.95;;;;;;;9.39;100.00;99729.75;5047693;28;20060;-75
2022/12/10 09:51:50;;;;;;;40.35;29.33;;;;;;;8.76;100.00;99631.56;5040893;28;20044;-75
2022/12/10 09:54:33;;;;;;;37.33;27.85;;;;;;;9.24;100.00;99696.69;5054021;28;20074;-78
2022/12/10 09:57:00;;;;;;;50.45;31.80;;;;;;;9.27;100.00;99694.94;5057671;28;20039;-76
2022/12/10 09:59:40;;;;;;;47.15;30.42;;;;;;;9.53;100.00;99741.03;5035226;28;20047;-76
2022/12/10 10:02:22;;;;;;;39.03;28.27;;;;;;;9.84;100.00;99752.16;5025416;28;20056;-74
2022/12/10 10:04:55;;;;;;;43.88;28.50;;;;;;;9.88;100.00;99714.56;5048307;28;20133;-77
2022/12/10 10:07:28;;;;;;;48.67;30.88;;;;;;;10.12;100.00;99739.69;5046929;28;20067;-74
2022/12/10 10:09:59;;;;;;;54.17;31.23;;;;;;;10.10;100.00;99699.50;5043975;28;20060;-76
2022/12/10 10:12:28;;;;;;;41.47;29.95;;;;;;;10.37;100.00;99709.75;5039442;28;20063;-71
2022/12/10 10:14:53;;;;;;;45.75;31.23;;;;;;;10.39;100.00;99687.88;5036113;28;20038;-70
2022/12/10 10:17:29;;;;;;;46.30;29.13;;;;;;;9.90;100.00;99589.66;5048374;28;20048;-71
2022/12/10 10:19:54;;;;;;;43.78;29.35;;;;;;;10.68;100.00;99697.19;5038447;28;20088;-72
2022/12/10 10:22:20;;;;;;;44.70;30.23;;;;;;;9.98;100.00;99576.47;5035644;28;20057;-71
2022/12/10 10:24:46;;;;;;;45.35;29.17;;;;;;;10.66;100.00;99699.81;5038251;28;20516;-72
2022/12/10 10:27:24;;;;;;;40.05;29.27;;;;;;;10.73;100.00;99693.59;5035115;28;20468;-71
2022/12/10 10:29:52;;;;;;;44.60;30.90;;;;;;;9.98;100.00;99589.56;5019500;28;20444;-69
2022/12/10 10:32:23;;;;;;;61.35;32.50;;;;;;;10.13;100.00;99614.72;5039707;28;20143;-70
2022/12/10 10:34:59;;;;;;;34.70;28.77;;;;;;;10.08;100.00;99583.31;5035644;28;20049;-70
2022/12/10 10:37:40;;;;;;;44.70;31.33;;;;;;;10.16;100.00;99578.00;5041507;28;20064;-72
2022/12/10 10:40:20;;;;;;;45.70;29.77;;;;;;;10.90;100.00;99684.66;5004051;28;20132;-70
2022/12/10 10:42:46;;;;;;;44.80;30.77;;;;;;;10.93;100.00;99680.25;5035731;28;20037;-71
2022/12/10 10:45:30;;;;;;;50.53;31.20;;;;;;;11.00;100.00;99673.13;5047417;28;20059;-71
2022/12/10 10:48:24;;;;;;;;;;;;;;;11.07;100.00;99671.28;5037440;28;20040;-72
2022/12/10 10:50:51;;;;;;;;;;;;;;;11.08;100.00;99666.03;5033165;28;19932;-72
2022/12/10 10:53:28;;;;;;;47.70;31.35;;;;;;;11.04;100.00;99655.59;5047362;28;19943;-71
2022/12/10 10:55:58;;;;;;;53.58;32.58;;;;;;;10.97;100.00;99650.41;5042700;28;20052;-71
2022/12/10 10:58:25;;;;;;;44.80;30.02;;;;;;;11.02;100.00;99629.34;5019017;28;20053;-70
2022/12/10 11:00:59;;;;;;;49.38;32.55;;;;;;;10.80;100.00;99628.81;5037274;28;20516;-71
2022/12/10 11:03:27;;;;;;;41.65;30.15;;;;;;;11.05;100.00;99649.44;5049065;28;20055;-72
2022/12/10 11:05:55;;;;;;;46.75;30.20;;;;;;;10.98;100.00;99627.69;5019210;28;20488;-70
2022/12/10 11:08:21;;;;;;;54.10;31.77;;;;;;;10.58;100.00;99573.09;5040988;28;20105;-70
2022/12/10 11:10:49;;;;;;;46.47;32.50;;;;;;;10.57;100.00;99553.03;5040938;28;20413;-71
2022/12/10 11:13:26;;;;;;;46.60;30.05;;;;;;;11.20;100.00;99660.59;5026797;28;20064;-70
2022/12/10 11:16:00;;;;;;;43.20;28.60;;;;;;;11.25;100.00;99644.78;5041720;28;20152;-70
2022/12/10 11:18:31;;;;;;;;;;;;;;;11.28;100.00;99641.22;5037800;28;20111;-70
2022/12/10 11:21:23;;;;;;;44.45;30.08;;;;;;;11.29;100.00;99621.97;5042136;28;19921;-72
2022/12/10 11:23:53;;;;;;;43.25;33.40;;;;;;;11.18;100.00;99601.97;5034913;28;20114;-72
2022/12/10 11:26:29;;;;;;;49.60;32.78;;;;;;;11.35;100.00;99629.72;5033836;28;20282;-69
2022/12/10 11:29:33;;;;;;;47.85;31.65;;;;;;;11.32;100.00;99625.41;5023141;28;20046;-74
2022/12/10 11:32:10;;;;;;;43.97;32.20;;;;;;;11.51;100.00;99627.72;5045368;28;20155;-72